KPLU

Pierce County - Thun Field Airport

Puyallup, Washington, USA
METAR KPLU 191515Z AUTO 19004KT 10SM SCT060 OVC070 06/03 A2986 RMK AO2
Observed Flight Rules
Jan-19 @ 15:15 UTC (17 minutes ago) Visual Flight Rules
Wind Visibility Clouds
190° at 4 knots 10 miles
  • Scattered at 6,000' AGL
  • Overcast at 7,000' AGL
Temperatures Readings
Current 6°C / 43°F
Dewpoint 3°C / 37°F
Humidity 81%
Altimeter 29.86" Hg
Pressure 1011 hPa
Elevation 164
METAR KPLU 191515Z AUTO 19004KT 10SM SCT060 OVC070 06/03 A2986 RMK AO2
Observed Flight Rules
Jan-19 @ 15:15 UTC
(17 minutes ago)
VFR
Wind Visibility
190° at 4 knots 10 miles
Clouds
  • Scattered at 6,000' AGL
  • Overcast at 7,000' AGL
Temperature Dewpoint
6°C / 43°F 3°C / 37°F
Humidity Altimeter Pressure
81% 29.86" Hg 1011 hPa